sensor_id;sensor_type;location;lat;lon;timestamp;P1;durP1;ratioP1;P2;durP2;ratioP2
55455;SDS011;63021;52.836;6.376;2024-02-04T00:01:46;10.60;;;4.03;;
55455;SDS011;63021;52.836;6.376;2024-02-04T00:04:12;11.60;;;3.05;;
55455;SDS011;63021;52.836;6.376;2024-02-04T00:06:37;14.60;;;3.33;;
55455;SDS011;63021;52.836;6.376;2024-02-04T00:09:03;14.07;;;4.65;;
55455;SDS011;63021;52.836;6.376;2024-02-04T00:11:31;10.68;;;3.45;;
55455;SDS011;63021;52.836;6.376;2024-02-04T00:13:57;5.70;;;2.58;;
55455;SDS011;63021;52.836;6.376;2024-02-04T00:16:22;9.38;;;3.25;;
55455;SDS011;63021;52.836;6.376;2024-02-04T00:18:47;22.52;;;4.22;;
55455;SDS011;63021;52.836;6.376;2024-02-04T00:21:13;13.85;;;2.78;;
55455;SDS011;63021;52.836;6.376;2024-02-04T00:23:38;12.77;;;3.67;;
55455;SDS011;63021;52.836;6.376;2024-02-04T00:26:04;16.38;;;2.90;;
55455;SDS011;63021;52.836;6.376;2024-02-04T00:28:29;11.63;;;3.08;;
55455;SDS011;63021;52.836;6.376;2024-02-04T00:30:54;13.25;;;3.08;;
55455;SDS011;63021;52.836;6.376;2024-02-04T00:33:21;17.63;;;3.38;;
55455;SDS011;63021;52.836;6.376;2024-02-04T00:35:47;16.15;;;3.63;;
55455;SDS011;63021;52.836;6.376;2024-02-04T00:38:12;15.15;;;3.08;;
55455;SDS011;63021;52.836;6.376;2024-02-04T00:40:38;10.07;;;3.03;;
55455;SDS011;63021;52.836;6.376;2024-02-04T00:43:03;12.32;;;4.40;;
55455;SDS011;63021;52.836;6.376;2024-02-04T00:45:29;15.05;;;5.75;;
55455;SDS011;63021;52.836;6.376;2024-02-04T00:47:54;12.00;;;4.30;;
55455;SDS011;63021;52.836;6.376;2024-02-04T00:50:20;10.52;;;3.50;;
55455;SDS011;63021;52.836;6.376;2024-02-04T00:52:45;11.98;;;3.33;;
55455;SDS011;63021;52.836;6.376;2024-02-04T00:55:10;14.50;;;4.90;;
55455;SDS011;63021;52.836;6.376;2024-02-04T00:57:36;11.48;;;3.08;;
55455;SDS011;63021;52.836;6.376;2024-02-04T01:00:01;21.77;;;3.88;;
55455;SDS011;63021;52.836;6.376;2024-02-04T01:02:27;17.13;;;4.00;;
55455;SDS011;63021;52.836;6.376;2024-02-04T01:04:53;11.18;;;2.97;;
55455;SDS011;63021;52.836;6.376;2024-02-04T01:07:18;10.38;;;3.15;;
55455;SDS011;63021;52.836;6.376;2024-02-04T01:09:43;7.85;;;3.20;;
55455;SDS011;63021;52.836;6.376;2024-02-04T01:12:09;13.10;;;3.40;;
55455;SDS011;63021;52.836;6.376;2024-02-04T01:14:34;15.52;;;3.10;;
55455;SDS011;63021;52.836;6.376;2024-02-04T01:17:00;10.25;;;3.33;;
55455;SDS011;63021;52.836;6.376;2024-02-04T01:19:25;12.18;;;2.60;;
55455;SDS011;63021;52.836;6.376;2024-02-04T01:21:51;10.18;;;2.92;;
55455;SDS011;63021;52.836;6.376;2024-02-04T01:24:16;12.82;;;3.63;;
55455;SDS011;63021;52.836;6.376;2024-02-04T01:26:43;15.18;;;2.95;;
55455;SDS011;63021;52.836;6.376;2024-02-04T01:29:08;10.07;;;2.92;;
55455;SDS011;63021;52.836;6.376;2024-02-04T01:31:34;13.45;;;2.67;;
55455;SDS011;63021;52.836;6.376;2024-02-04T01:33:59;9.95;;;2.70;;
55455;SDS011;63021;52.836;6.376;2024-02-04T01:36:25;12.18;;;3.17;;
55455;SDS011;63021;52.836;6.376;2024-02-04T01:38:50;8.88;;;2.90;;
55455;SDS011;63021;52.836;6.376;2024-02-04T01:41:15;13.23;;;2.58;;
55455;SDS011;63021;52.836;6.376;2024-02-04T01:43:41;13.23;;;2.53;;
55455;SDS011;63021;52.836;6.376;2024-02-04T01:46:06;11.45;;;2.47;;
55455;SDS011;63021;52.836;6.376;2024-02-04T01:48:33;8.65;;;3.35;;
55455;SDS011;63021;52.836;6.376;2024-02-04T01:50:59;11.05;;;2.83;;
55455;SDS011;63021;52.836;6.376;2024-02-04T01:53:25;15.77;;;2.97;;
55455;SDS011;63021;52.836;6.376;2024-02-04T01:55:51;16.92;;;3.33;;
55455;SDS011;63021;52.836;6.376;2024-02-04T01:58:17;14.25;;;2.42;;
55455;SDS011;63021;52.836;6.376;2024-02-04T02:00:42;11.70;;;2.80;;
55455;SDS011;63021;52.836;6.376;2024-02-04T02:03:10;14.65;;;2.88;;
55455;SDS011;63021;52.836;6.376;2024-02-04T02:05:37;8.43;;;3.17;;
55455;SDS011;63021;52.836;6.376;2024-02-04T02:08:04;12.82;;;3.72;;
55455;SDS011;63021;52.836;6.376;2024-02-04T02:10:30;10.50;;;3.72;;
55455;SDS011;63021;52.836;6.376;2024-02-04T02:12:57;11.63;;;3.65;;
55455;SDS011;63021;52.836;6.376;2024-02-04T02:15:34;18.30;;;5.18;;
55455;SDS011;63021;52.836;6.376;2024-02-04T02:18:06;13.60;;;4.30;;
55455;SDS011;63021;52.836;6.376;2024-02-04T02:20:41;13.63;;;4.10;;
55455;SDS011;63021;52.836;6.376;2024-02-04T02:23:31;18.20;;;4.85;;
55455;SDS011;63021;52.836;6.376;2024-02-04T02:26:02;13.93;;;4.75;;
55455;SDS011;63021;52.836;6.376;2024-02-04T02:28:28;22.98;;;7.07;;
55455;SDS011;63021;52.836;6.376;2024-02-04T02:30:53;18.52;;;5.88;;
55455;SDS011;63021;52.836;6.376;2024-02-04T02:33:19;18.35;;;6.50;;
55455;SDS011;63021;52.836;6.376;2024-02-04T02:35:44;18.30;;;6.95;;
55455;SDS011;63021;52.836;6.376;2024-02-04T02:38:18;22.27;;;6.35;;
55455;SDS011;63021;52.836;6.376;2024-02-04T02:40:54;21.63;;;6.40;;
55455;SDS011;63021;52.836;6.376;2024-02-04T02:43:24;15.68;;;6.50;;
55455;SDS011;63021;52.836;6.376;2024-02-04T02:45:52;14.02;;;5.35;;
55455;SDS011;63021;52.836;6.376;2024-02-04T02:48:18;17.45;;;5.57;;
55455;SDS011;63021;52.836;6.376;2024-02-04T02:50:44;15.93;;;5.88;;
55455;SDS011;63021;52.836;6.376;2024-02-04T02:53:09;12.45;;;5.07;;
55455;SDS011;63021;52.836;6.376;2024-02-04T02:55:35;10.32;;;5.65;;
55455;SDS011;63021;52.836;6.376;2024-02-04T02:58:00;13.80;;;5.85;;
55455;SDS011;63021;52.836;6.376;2024-02-04T03:00:26;14.07;;;4.78;;
55455;SDS011;63021;52.836;6.376;2024-02-04T03:02:51;19.65;;;4.90;;
55455;SDS011;63021;52.836;6.376;2024-02-04T03:05:17;16.65;;;4.82;;
55455;SDS011;63021;52.836;6.376;2024-02-04T03:07:43;19.65;;;6.20;;
55455;SDS011;63021;52.836;6.376;2024-02-04T03:10:08;10.00;;;3.80;;
55455;SDS011;63021;52.836;6.376;2024-02-04T03:12:34;13.77;;;3.60;;
55455;SDS011;63021;52.836;6.376;2024-02-04T03:15:00;11.65;;;3.78;;
55455;SDS011;63021;52.836;6.376;2024-02-04T03:17:25;10.60;;;3.70;;
55455;SDS011;63021;52.836;6.376;2024-02-04T03:19:50;10.95;;;3.22;;
55455;SDS011;63021;52.836;6.376;2024-02-04T03:22:20;13.60;;;3.40;;
55455;SDS011;63021;52.836;6.376;2024-02-04T03:24:46;8.77;;;2.40;;
55455;SDS011;63021;52.836;6.376;2024-02-04T03:27:12;16.40;;;3.35;;
55455;SDS011;63021;52.836;6.376;2024-02-04T03:29:38;11.48;;;3.13;;
55455;SDS011;63021;52.836;6.376;2024-02-04T03:32:03;12.98;;;2.72;;
55455;SDS011;63021;52.836;6.376;2024-02-04T03:34:29;8.75;;;2.75;;
55455;SDS011;63021;52.836;6.376;2024-02-04T03:36:54;16.42;;;3.65;;
55455;SDS011;63021;52.836;6.376;2024-02-04T03:39:20;10.77;;;2.47;;
55455;SDS011;63021;52.836;6.376;2024-02-04T03:41:45;23.05;;;4.38;;
55455;SDS011;63021;52.836;6.376;2024-02-04T03:44:11;10.75;;;3.20;;
55455;SDS011;63021;52.836;6.376;2024-02-04T03:46:36;10.15;;;2.30;;
55455;SDS011;63021;52.836;6.376;2024-02-04T03:49:04;12.45;;;2.03;;
55455;SDS011;63021;52.836;6.376;2024-02-04T03:51:30;16.38;;;3.38;;
55455;SDS011;63021;52.836;6.376;2024-02-04T03:53:56;13.65;;;2.28;;
55455;SDS011;63021;52.836;6.376;2024-02-04T03:56:21;7.60;;;2.00;;
55455;SDS011;63021;52.836;6.376;2024-02-04T03:58:47;11.45;;;2.53;;
55455;SDS011;63021;52.836;6.376;2024-02-04T04:01:12;12.48;;;3.05;;
55455;SDS011;63021;52.836;6.376;2024-02-04T04:03:41;12.77;;;2.85;;
55455;SDS011;63021;52.836;6.376;2024-02-04T04:06:07;19.77;;;3.50;;
55455;SDS011;63021;52.836;6.376;2024-02-04T04:08:34;9.93;;;2.03;;
55455;SDS011;63021;52.836;6.376;2024-02-04T04:10:59;10.75;;;2.20;;
55455;SDS011;63021;52.836;6.376;2024-02-04T04:13:25;24.75;;;4.63;;
55455;SDS011;63021;52.836;6.376;2024-02-04T04:15:50;12.52;;;2.58;;
55455;SDS011;63021;52.836;6.376;2024-02-04T04:18:16;13.27;;;2.67;;
55455;SDS011;63021;52.836;6.376;2024-02-04T04:20:41;14.20;;;2.45;;
55455;SDS011;63021;52.836;6.376;2024-02-04T04:23:07;9.93;;;2.40;;
55455;SDS011;63021;52.836;6.376;2024-02-04T04:25:32;11.10;;;2.95;;
55455;SDS011;63021;52.836;6.376;2024-02-04T04:27:58;9.82;;;2.33;;
55455;SDS011;63021;52.836;6.376;2024-02-04T04:30:24;12.30;;;2.88;;
55455;SDS011;63021;52.836;6.376;2024-02-04T04:32:49;12.40;;;2.63;;
55455;SDS011;63021;52.836;6.376;2024-02-04T04:35:14;12.35;;;3.50;;
55455;SDS011;63021;52.836;6.376;2024-02-04T04:37:40;21.58;;;3.13;;
55455;SDS011;63021;52.836;6.376;2024-02-04T04:40:06;7.20;;;2.80;;
55455;SDS011;63021;52.836;6.376;2024-02-04T04:42:32;17.15;;;3.72;;
55455;SDS011;63021;52.836;6.376;2024-02-04T04:44:57;16.65;;;3.13;;
55455;SDS011;63021;52.836;6.376;2024-02-04T04:47:23;17.17;;;3.92;;
55455;SDS011;63021;52.836;6.376;2024-02-04T04:49:48;14.95;;;2.50;;
55455;SDS011;63021;52.836;6.376;2024-02-04T04:52:14;15.27;;;3.05;;
55455;SDS011;63021;52.836;6.376;2024-02-04T04:54:39;14.88;;;3.90;;
55455;SDS011;63021;52.836;6.376;2024-02-04T04:57:05;5.40;;;1.92;;
55455;SDS011;63021;52.836;6.376;2024-02-04T04:59:30;19.02;;;3.40;;
55455;SDS011;63021;52.836;6.376;2024-02-04T05:01:56;15.68;;;4.10;;
55455;SDS011;63021;52.836;6.376;2024-02-04T05:04:21;11.60;;;2.42;;
55455;SDS011;63021;52.836;6.376;2024-02-04T05:06:50;7.38;;;2.30;;
55455;SDS011;63021;52.836;6.376;2024-02-04T05:09:15;15.07;;;2.45;;
55455;SDS011;63021;52.836;6.376;2024-02-04T05:11:41;16.63;;;3.60;;
55455;SDS011;63021;52.836;6.376;2024-02-04T05:14:07;7.72;;;2.83;;
55455;SDS011;63021;52.836;6.376;2024-02-04T05:16:32;15.02;;;2.55;;
55455;SDS011;63021;52.836;6.376;2024-02-04T05:18:58;10.85;;;2.53;;
55455;SDS011;63021;52.836;6.376;2024-02-04T05:21:23;21.58;;;3.65;;
55455;SDS011;63021;52.836;6.376;2024-02-04T05:23:48;21.40;;;4.13;;
55455;SDS011;63021;52.836;6.376;2024-02-04T05:26:17;10.60;;;2.33;;
55455;SDS011;63021;52.836;6.376;2024-02-04T05:28:43;11.48;;;3.33;;
55455;SDS011;63021;52.836;6.376;2024-02-04T05:31:09;10.73;;;2.58;;
55455;SDS011;63021;52.836;6.376;2024-02-04T05:33:34;16.85;;;2.20;;
55455;SDS011;63021;52.836;6.376;2024-02-04T05:35:59;10.10;;;2.55;;
55455;SDS011;63021;52.836;6.376;2024-02-04T05:38:25;16.75;;;2.33;;
55455;SDS011;63021;52.836;6.376;2024-02-04T05:40:50;13.05;;;2.53;;
55455;SDS011;63021;52.836;6.376;2024-02-04T05:43:16;10.77;;;2.13;;
55455;SDS011;63021;52.836;6.376;2024-02-04T05:45:41;8.82;;;1.85;;
55455;SDS011;63021;52.836;6.376;2024-02-04T05:48:07;13.68;;;3.20;;
55455;SDS011;63021;52.836;6.376;2024-02-04T05:50:33;12.50;;;3.38;;
55455;SDS011;63021;52.836;6.376;2024-02-04T05:52:58;15.75;;;2.15;;
55455;SDS011;63021;52.836;6.376;2024-02-04T05:55:24;16.23;;;2.65;;
55455;SDS011;63021;52.836;6.376;2024-02-04T05:57:49;15.20;;;4.32;;
55455;SDS011;63021;52.836;6.376;2024-02-04T06:00:15;13.45;;;2.95;;
55455;SDS011;63021;52.836;6.376;2024-02-04T06:02:41;14.73;;;2.45;;
55455;SDS011;63021;52.836;6.376;2024-02-04T06:05:08;10.57;;;2.15;;
55455;SDS011;63021;52.836;6.376;2024-02-04T06:07:34;13.40;;;1.98;;
55455;SDS011;63021;52.836;6.376;2024-02-04T06:09:59;18.27;;;4.40;;
55455;SDS011;63021;52.836;6.376;2024-02-04T06:12:25;11.85;;;2.28;;
55455;SDS011;63021;52.836;6.376;2024-02-04T06:14:50;15.75;;;2.35;;
55455;SDS011;63021;52.836;6.376;2024-02-04T06:17:16;23.90;;;4.07;;
55455;SDS011;63021;52.836;6.376;2024-02-04T06:19:41;11.98;;;3.53;;
55455;SDS011;63021;52.836;6.376;2024-02-04T06:22:07;17.35;;;2.45;;
55455;SDS011;63021;52.836;6.376;2024-02-04T06:24:32;13.88;;;2.35;;
55455;SDS011;63021;52.836;6.376;2024-02-04T06:26:58;8.07;;;2.05;;
55455;SDS011;63021;52.836;6.376;2024-02-04T06:29:23;14.88;;;2.58;;
55455;SDS011;63021;52.836;6.376;2024-02-04T06:31:48;11.57;;;2.72;;
55455;SDS011;63021;52.836;6.376;2024-02-04T06:34:14;14.70;;;2.58;;
55455;SDS011;63021;52.836;6.376;2024-02-04T06:36:43;10.93;;;2.40;;
55455;SDS011;63021;52.836;6.376;2024-02-04T06:39:11;15.35;;;2.22;;
55455;SDS011;63021;52.836;6.376;2024-02-04T06:41:37;14.15;;;2.60;;
55455;SDS011;63021;52.836;6.376;2024-02-04T06:44:03;11.20;;;2.67;;
55455;SDS011;63021;52.836;6.376;2024-02-04T06:46:29;20.02;;;2.55;;
55455;SDS011;63021;52.836;6.376;2024-02-04T06:48:54;17.00;;;3.70;;
55455;SDS011;63021;52.836;6.376;2024-02-04T06:51:20;11.55;;;2.80;;
55455;SDS011;63021;52.836;6.376;2024-02-04T06:53:46;15.43;;;2.42;;
55455;SDS011;63021;52.836;6.376;2024-02-04T06:56:11;13.70;;;3.75;;
55455;SDS011;63021;52.836;6.376;2024-02-04T06:58:41;12.45;;;2.03;;
55455;SDS011;63021;52.836;6.376;2024-02-04T07:01:06;27.90;;;3.63;;
55455;SDS011;63021;52.836;6.376;2024-02-04T07:03:32;12.27;;;2.90;;
55455;SDS011;63021;52.836;6.376;2024-02-04T07:06:00;12.60;;;3.42;;
55455;SDS011;63021;52.836;6.376;2024-02-04T07:08:26;15.25;;;3.28;;
55455;SDS011;63021;52.836;6.376;2024-02-04T07:10:52;14.00;;;3.45;;
55455;SDS011;63021;52.836;6.376;2024-02-04T07:13:18;24.42;;;4.88;;
55455;SDS011;63021;52.836;6.376;2024-02-04T07:15:44;15.60;;;2.58;;
55455;SDS011;63021;52.836;6.376;2024-02-04T07:18:10;17.20;;;3.30;;
55455;SDS011;63021;52.836;6.376;2024-02-04T07:20:35;14.65;;;2.67;;
55455;SDS011;63021;52.836;6.376;2024-02-04T07:23:01;15.57;;;2.63;;
55455;SDS011;63021;52.836;6.376;2024-02-04T07:25:27;16.45;;;3.85;;
55455;SDS011;63021;52.836;6.376;2024-02-04T07:27:53;14.52;;;2.63;;
55455;SDS011;63021;52.836;6.376;2024-02-04T07:30:19;11.02;;;2.60;;
55455;SDS011;63021;52.836;6.376;2024-02-04T07:32:45;14.95;;;3.13;;
55455;SDS011;63021;52.836;6.376;2024-02-04T07:35:11;16.90;;;3.13;;
55455;SDS011;63021;52.836;6.376;2024-02-04T07:37:37;12.25;;;2.63;;
55455;SDS011;63021;52.836;6.376;2024-02-04T07:40:03;13.60;;;2.90;;
55455;SDS011;63021;52.836;6.376;2024-02-04T07:42:30;22.55;;;3.40;;
55455;SDS011;63021;52.836;6.376;2024-02-04T07:44:55;12.27;;;2.97;;
55455;SDS011;63021;52.836;6.376;2024-02-04T07:47:21;16.85;;;3.15;;
55455;SDS011;63021;52.836;6.376;2024-02-04T07:49:50;18.25;;;2.85;;
55455;SDS011;63021;52.836;6.376;2024-02-04T07:52:16;12.50;;;3.85;;
55455;SDS011;63021;52.836;6.376;2024-02-04T07:54:42;12.25;;;3.08;;
55455;SDS011;63021;52.836;6.376;2024-02-04T07:57:11;13.43;;;2.83;;
55455;SDS011;63021;52.836;6.376;2024-02-04T07:59:37;11.02;;;2.22;;
55455;SDS011;63021;52.836;6.376;2024-02-04T08:02:02;15.05;;;2.90;;
55455;SDS011;63021;52.836;6.376;2024-02-04T08:04:28;9.55;;;2.25;;
55455;SDS011;63021;52.836;6.376;2024-02-04T08:06:53;12.07;;;2.78;;
55455;SDS011;63021;52.836;6.376;2024-02-04T08:09:19;11.88;;;2.45;;
55455;SDS011;63021;52.836;6.376;2024-02-04T08:11:45;15.10;;;3.75;;
55455;SDS011;63021;52.836;6.376;2024-02-04T08:14:10;11.45;;;2.50;;
55455;SDS011;63021;52.836;6.376;2024-02-04T08:16:35;13.82;;;3.33;;
55455;SDS011;63021;52.836;6.376;2024-02-04T08:19:01;8.38;;;2.45;;
55455;SDS011;63021;52.836;6.376;2024-02-04T08:21:26;10.40;;;2.97;;
55455;SDS011;63021;52.836;6.376;2024-02-04T08:23:52;10.73;;;2.83;;
55455;SDS011;63021;52.836;6.376;2024-02-04T08:26:17;6.28;;;2.25;;
55455;SDS011;63021;52.836;6.376;2024-02-04T08:28:43;8.27;;;2.60;;
55455;SDS011;63021;52.836;6.376;2024-02-04T08:31:09;8.95;;;2.28;;
55455;SDS011;63021;52.836;6.376;2024-02-04T08:33:34;9.18;;;2.92;;
55455;SDS011;63021;52.836;6.376;2024-02-04T08:36:00;6.47;;;2.25;;
55455;SDS011;63021;52.836;6.376;2024-02-04T08:38:25;10.73;;;3.17;;
55455;SDS011;63021;52.836;6.376;2024-02-04T08:40:50;20.00;;;3.13;;
55455;SDS011;63021;52.836;6.376;2024-02-04T08:43:16;5.20;;;1.92;;
55455;SDS011;63021;52.836;6.376;2024-02-04T08:45:41;10.55;;;2.53;;
55455;SDS011;63021;52.836;6.376;2024-02-04T08:48:07;12.85;;;2.70;;
55455;SDS011;63021;52.836;6.376;2024-02-04T08:50:32;10.05;;;2.75;;
55455;SDS011;63021;52.836;6.376;2024-02-04T08:52:58;10.40;;;2.42;;
55455;SDS011;63021;52.836;6.376;2024-02-04T08:55:23;10.07;;;2.63;;
55455;SDS011;63021;52.836;6.376;2024-02-04T08:57:49;10.05;;;3.22;;
55455;SDS011;63021;52.836;6.376;2024-02-04T09:00:15;14.65;;;3.47;;
55455;SDS011;63021;52.836;6.376;2024-02-04T09:02:41;11.38;;;2.53;;
55455;SDS011;63021;52.836;6.376;2024-02-04T09:05:06;8.93;;;2.80;;
55455;SDS011;63021;52.836;6.376;2024-02-04T09:07:32;12.52;;;3.03;;
55455;SDS011;63021;52.836;6.376;2024-02-04T09:09:57;8.82;;;2.08;;
55455;SDS011;63021;52.836;6.376;2024-02-04T09:12:23;13.13;;;2.60;;
55455;SDS011;63021;52.836;6.376;2024-02-04T09:14:48;8.90;;;1.98;;
55455;SDS011;63021;52.836;6.376;2024-02-04T09:17:13;11.00;;;2.40;;
55455;SDS011;63021;52.836;6.376;2024-02-04T09:19:39;7.07;;;2.53;;
55455;SDS011;63021;52.836;6.376;2024-02-04T09:22:05;11.00;;;2.88;;
55455;SDS011;63021;52.836;6.376;2024-02-04T09:24:30;11.68;;;1.90;;
55455;SDS011;63021;52.836;6.376;2024-02-04T09:26:56;13.38;;;2.58;;
55455;SDS011;63021;52.836;6.376;2024-02-04T09:29:21;5.32;;;2.28;;
55455;SDS011;63021;52.836;6.376;2024-02-04T09:31:47;8.57;;;1.80;;
55455;SDS011;63021;52.836;6.376;2024-02-04T09:34:14;9.85;;;2.00;;
55455;SDS011;63021;52.836;6.376;2024-02-04T09:36:40;11.05;;;2.13;;
55455;SDS011;63021;52.836;6.376;2024-02-04T09:39:05;5.65;;;2.22;;
55455;SDS011;63021;52.836;6.376;2024-02-04T09:41:31;6.68;;;2.22;;
55455;SDS011;63021;52.836;6.376;2024-02-04T09:43:56;6.07;;;1.65;;
55455;SDS011;63021;52.836;6.376;2024-02-04T09:46:24;11.52;;;2.33;;
55455;SDS011;63021;52.836;6.376;2024-02-04T09:48:50;7.43;;;1.50;;
55455;SDS011;63021;52.836;6.376;2024-02-04T09:51:17;5.47;;;2.13;;
55455;SDS011;63021;52.836;6.376;2024-02-04T09:53:43;7.50;;;2.28;;
55455;SDS011;63021;52.836;6.376;2024-02-04T09:56:10;4.90;;;1.80;;
55455;SDS011;63021;52.836;6.376;2024-02-04T09:58:37;12.98;;;2.20;;
55455;SDS011;63021;52.836;6.376;2024-02-04T10:01:06;5.72;;;1.75;;
55455;SDS011;63021;52.836;6.376;2024-02-04T10:03:33;5.80;;;2.78;;
55455;SDS011;63021;52.836;6.376;2024-02-04T10:05:59;9.07;;;1.80;;
55455;SDS011;63021;52.836;6.376;2024-02-04T10:08:25;5.70;;;2.20;;
55455;SDS011;63021;52.836;6.376;2024-02-04T10:10:50;8.25;;;2.63;;
55455;SDS011;63021;52.836;6.376;2024-02-04T10:13:16;9.20;;;2.30;;
55455;SDS011;63021;52.836;6.376;2024-02-04T10:15:41;7.07;;;1.80;;
55455;SDS011;63021;52.836;6.376;2024-02-04T10:18:07;5.97;;;1.83;;
55455;SDS011;63021;52.836;6.376;2024-02-04T10:20:33;6.05;;;2.83;;
55455;SDS011;63021;52.836;6.376;2024-02-04T10:22:59;7.95;;;3.03;;
55455;SDS011;63021;52.836;6.376;2024-02-04T10:25:24;13.23;;;2.38;;
55455;SDS011;63021;52.836;6.376;2024-02-04T10:27:50;5.93;;;2.35;;
55455;SDS011;63021;52.836;6.376;2024-02-04T10:30:18;8.07;;;2.30;;
55455;SDS011;63021;52.836;6.376;2024-02-04T10:32:44;3.28;;;2.25;;
55455;SDS011;63021;52.836;6.376;2024-02-04T10:35:10;5.80;;;2.00;;
55455;SDS011;63021;52.836;6.376;2024-02-04T10:37:36;7.43;;;2.20;;
55455;SDS011;63021;52.836;6.376;2024-02-04T10:40:02;6.90;;;1.70;;
55455;SDS011;63021;52.836;6.376;2024-02-04T10:42:27;6.63;;;2.30;;
55455;SDS011;63021;52.836;6.376;2024-02-04T10:44:54;5.75;;;2.05;;
55455;SDS011;63021;52.836;6.376;2024-02-04T10:47:22;8.95;;;2.20;;
55455;SDS011;63021;52.836;6.376;2024-02-04T10:49:52;9.00;;;2.72;;
55455;SDS011;63021;52.836;6.376;2024-02-04T10:52:21;8.65;;;2.50;;
55455;SDS011;63021;52.836;6.376;2024-02-04T10:54:51;6.45;;;2.83;;
55455;SDS011;63021;52.836;6.376;2024-02-04T10:57:20;8.40;;;2.28;;
55455;SDS011;63021;52.836;6.376;2024-02-04T10:59:51;9.57;;;2.20;;
55455;SDS011;63021;52.836;6.376;2024-02-04T11:02:17;6.03;;;2.13;;
55455;SDS011;63021;52.836;6.376;2024-02-04T11:04:44;6.82;;;2.75;;
55455;SDS011;63021;52.836;6.376;2024-02-04T11:07:13;7.65;;;2.80;;
55455;SDS011;63021;52.836;6.376;2024-02-04T11:09:39;7.60;;;2.97;;
55455;SDS011;63021;52.836;6.376;2024-02-04T11:12:06;6.07;;;2.40;;
55455;SDS011;63021;52.836;6.376;2024-02-04T11:14:35;8.85;;;2.80;;
55455;SDS011;63021;52.836;6.376;2024-02-04T11:17:11;4.97;;;2.80;;
55455;SDS011;63021;52.836;6.376;2024-02-04T11:25:27;7.90;;;2.35;;
55455;SDS011;63021;52.836;6.376;2024-02-04T11:28:08;3.47;;;2.10;;
55455;SDS011;63021;52.836;6.376;2024-02-04T11:30:34;3.67;;;1.90;;
55455;SDS011;63021;52.836;6.376;2024-02-04T11:33:01;6.00;;;2.13;;
55455;SDS011;63021;52.836;6.376;2024-02-04T11:35:31;7.07;;;2.10;;
55455;SDS011;63021;52.836;6.376;2024-02-04T11:37:58;6.55;;;1.95;;
55455;SDS011;63021;52.836;6.376;2024-02-04T11:40:29;4.63;;;1.60;;
55455;SDS011;63021;52.836;6.376;2024-02-04T11:43:05;4.25;;;1.40;;
55455;SDS011;63021;52.836;6.376;2024-02-04T11:45:31;7.22;;;1.92;;
55455;SDS011;63021;52.836;6.376;2024-02-04T11:48:00;4.38;;;1.73;;
55455;SDS011;63021;52.836;6.376;2024-02-04T11:50:30;4.80;;;1.73;;
55455;SDS011;63021;52.836;6.376;2024-02-04T11:53:29;3.50;;;1.67;;
55455;SDS011;63021;52.836;6.376;2024-02-04T11:55:48;5.45;;;2.10;;
55455;SDS011;63021;52.836;6.376;2024-02-04T11:58:18;6.50;;;1.75;;
55455;SDS011;63021;52.836;6.376;2024-02-04T12:00:43;7.15;;;2.63;;
55455;SDS011;63021;52.836;6.376;2024-02-04T12:03:10;4.50;;;2.22;;
55455;SDS011;63021;52.836;6.376;2024-02-04T12:05:36;4.18;;;1.60;;
55455;SDS011;63021;52.836;6.376;2024-02-04T12:08:07;4.78;;;1.77;;
55455;SDS011;63021;52.836;6.376;2024-02-04T12:10:34;7.38;;;2.05;;
55455;SDS011;63021;52.836;6.376;2024-02-04T12:13:02;6.30;;;2.13;;
55455;SDS011;63021;52.836;6.376;2024-02-04T12:15:28;7.07;;;1.50;;
55455;SDS011;63021;52.836;6.376;2024-02-04T12:17:55;6.15;;;1.20;;
55455;SDS011;63021;52.836;6.376;2024-02-04T12:20:20;4.05;;;1.60;;
55455;SDS011;63021;52.836;6.376;2024-02-04T12:22:46;6.38;;;1.38;;
55455;SDS011;63021;52.836;6.376;2024-02-04T12:25:13;3.08;;;1.40;;
55455;SDS011;63021;52.836;6.376;2024-02-04T12:27:39;2.88;;;1.38;;
55455;SDS011;63021;52.836;6.376;2024-02-04T12:30:05;7.13;;;1.40;;
55455;SDS011;63021;52.836;6.376;2024-02-04T12:32:32;10.93;;;1.40;;
55455;SDS011;63021;52.836;6.376;2024-02-04T12:34:57;2.58;;;1.30;;
55455;SDS011;63021;52.836;6.376;2024-02-04T12:37:23;6.88;;;1.58;;
55455;SDS011;63021;52.836;6.376;2024-02-04T12:39:49;13.15;;;2.00;;
55455;SDS011;63021;52.836;6.376;2024-02-04T12:42:15;5.07;;;1.30;;
55455;SDS011;63021;52.836;6.376;2024-02-04T12:44:46;5.68;;;1.60;;
55455;SDS011;63021;52.836;6.376;2024-02-04T12:47:12;6.70;;;1.45;;
55455;SDS011;63021;52.836;6.376;2024-02-04T12:49:38;3.72;;;1.35;;
55455;SDS011;63021;52.836;6.376;2024-02-04T12:52:04;6.63;;;1.52;;
55455;SDS011;63021;52.836;6.376;2024-02-04T12:54:39;9.18;;;1.67;;
55455;SDS011;63021;52.836;6.376;2024-02-04T12:57:06;1.60;;;1.10;;
55455;SDS011;63021;52.836;6.376;2024-02-04T12:59:33;6.88;;;1.42;;
55455;SDS011;63021;52.836;6.376;2024-02-04T13:02:02;5.00;;;1.48;;
55455;SDS011;63021;52.836;6.376;2024-02-04T13:04:47;4.40;;;1.45;;
55455;SDS011;63021;52.836;6.376;2024-02-04T13:07:13;4.68;;;1.20;;
55455;SDS011;63021;52.836;6.376;2024-02-04T13:09:41;4.07;;;1.30;;
55455;SDS011;63021;52.836;6.376;2024-02-04T13:12:07;7.50;;;1.50;;
55455;SDS011;63021;52.836;6.376;2024-02-04T13:14:34;4.10;;;1.33;;
55455;SDS011;63021;52.836;6.376;2024-02-04T13:17:01;5.63;;;1.50;;
55455;SDS011;63021;52.836;6.376;2024-02-04T13:19:37;6.53;;;1.80;;
55455;SDS011;63021;52.836;6.376;2024-02-04T13:22:07;5.53;;;1.77;;
55455;SDS011;63021;52.836;6.376;2024-02-04T13:24:34;3.65;;;1.92;;
55455;SDS011;63021;52.836;6.376;2024-02-04T13:27:00;5.20;;;1.25;;
55455;SDS011;63021;52.836;6.376;2024-02-04T13:29:27;3.65;;;1.02;;
55455;SDS011;63021;52.836;6.376;2024-02-04T13:31:53;5.03;;;1.27;;
55455;SDS011;63021;52.836;6.376;2024-02-04T13:34:19;2.15;;;1.20;;
55455;SDS011;63021;52.836;6.376;2024-02-04T13:36:45;2.28;;;1.30;;
55455;SDS011;63021;52.836;6.376;2024-02-04T13:39:11;4.13;;;1.20;;
55455;SDS011;63021;52.836;6.376;2024-02-04T13:41:38;4.63;;;1.35;;
55455;SDS011;63021;52.836;6.376;2024-02-04T13:44:04;5.85;;;1.40;;
55455;SDS011;63021;52.836;6.376;2024-02-04T13:46:29;6.97;;;1.60;;
55455;SDS011;63021;52.836;6.376;2024-02-04T13:48:55;4.53;;;1.70;;
55455;SDS011;63021;52.836;6.376;2024-02-04T13:51:20;4.68;;;1.67;;
55455;SDS011;63021;52.836;6.376;2024-02-04T13:53:46;5.20;;;1.98;;
55455;SDS011;63021;52.836;6.376;2024-02-04T13:56:11;4.75;;;1.35;;
55455;SDS011;63021;52.836;6.376;2024-02-04T13:58:37;4.40;;;1.13;;
55455;SDS011;63021;52.836;6.376;2024-02-04T14:01:02;3.45;;;1.50;;
55455;SDS011;63021;52.836;6.376;2024-02-04T14:03:28;4.75;;;1.42;;
55455;SDS011;63021;52.836;6.376;2024-02-04T14:05:53;6.85;;;1.67;;
55455;SDS011;63021;52.836;6.376;2024-02-04T14:08:20;5.13;;;1.23;;
55455;SDS011;63021;52.836;6.376;2024-02-04T14:10:45;2.53;;;1.15;;
55455;SDS011;63021;52.836;6.376;2024-02-04T14:13:11;3.13;;;1.50;;
55455;SDS011;63021;52.836;6.376;2024-02-04T14:15:37;4.35;;;1.60;;
55455;SDS011;63021;52.836;6.376;2024-02-04T14:18:03;4.15;;;1.55;;
55455;SDS011;63021;52.836;6.376;2024-02-04T14:20:29;3.95;;;1.30;;
55455;SDS011;63021;52.836;6.376;2024-02-04T14:22:55;5.40;;;1.58;;
55455;SDS011;63021;52.836;6.376;2024-02-04T14:25:21;2.80;;;1.40;;
55455;SDS011;63021;52.836;6.376;2024-02-04T14:27:49;3.17;;;2.00;;
55455;SDS011;63021;52.836;6.376;2024-02-04T14:30:15;3.20;;;1.67;;
55455;SDS011;63021;52.836;6.376;2024-02-04T14:32:40;4.20;;;1.50;;
55455;SDS011;63021;52.836;6.376;2024-02-04T14:35:07;1.73;;;1.13;;
55455;SDS011;63021;52.836;6.376;2024-02-04T14:37:34;1.70;;;1.30;;
55455;SDS011;63021;52.836;6.376;2024-02-04T14:40:00;4.10;;;1.52;;
55455;SDS011;63021;52.836;6.376;2024-02-04T14:42:25;17.08;;;10.10;;